Time,TemperatureF,DewpointF,PressureIn,WindDirection,WindDirectionDegrees,WindSpeedMPH,WindSpeedGustMPH,Humidity,HourlyPrecipIn,Conditions,Clouds,dailyrainin,SoftwareType,DateUTC
2015-01-27 00:03:00,17.4,-0.3,29.32,East,90,2.5,3.1,45,0.00,,SCT,0.00,VWS V15.00,2015-01-27 05:03:00,
2015-01-27 00:08:00,17.4,-0.3,29.32,East,90,2.0,3.1,45,0.00,,SCT,0.00,VWS V15.00,2015-01-27 05:08:00,
2015-01-27 00:13:00,17.4,-0.3,29.32,East,90,2.5,2.5,45,0.00,,SCT,0.00,VWS V15.00,2015-01-27 05:13:00,
2015-01-27 00:18:00,17.4,-0.3,29.32,NE,45,1.3,1.6,45,0.00,,SCT,0.00,VWS V15.00,2015-01-27 05:18:00,
2015-01-27 00:23:00,17.4,-0.3,29.32,ENE,68,2.0,2.2,45,0.00,,SCT,0.00,VWS V15.00,2015-01-27 05:23:00,
2015-01-27 00:28:00,17.4,-0.3,29.32,NE,45,2.2,2.2,45,0.00,,SCT,0.00,VWS V15.00,2015-01-27 05:28:00,
2015-01-27 00:33:00,17.4,-0.3,29.32,East,90,2.0,2.0,45,0.00,,SCT,0.00,VWS V15.00,2015-01-27 05:33:00,
2015-01-27 00:38:00,17.4,-0.3,29.35,ENE,68,1.3,1.3,45,0.00,,SCT,0.00,VWS V15.00,2015-01-27 05:38:00,
2015-01-27 00:43:00,17.4,-0.3,29.35,NE,45,1.6,2.2,45,0.00,,SCT,0.00,VWS V15.00,2015-01-27 05:43:00,
2015-01-27 00:48:00,17.4,-0.3,29.35,NE,45,2.2,2.5,45,0.00,,SCT,0.00,VWS V15.00,2015-01-27 05:48:00,
2015-01-27 00:53:00,17.4,-0.3,29.35,ENE,68,2.9,3.1,45,0.00,,SCT,0.00,VWS V15.00,2015-01-27 05:53:00,
2015-01-27 00:58:00,17.4,-0.3,29.35,ENE,68,2.7,3.1,45,0.00,,SCT,0.00,VWS V15.00,2015-01-27 05:58:00,
2015-01-27 01:03:00,17.4,-0.3,29.35,ENE,68,3.4,3.4,45,0.00,,SCT,0.00,VWS V15.00,2015-01-27 06:03:00,
2015-01-27 01:08:00,17.4,-0.3,29.35,ENE,68,2.5,2.5,45,0.00,,SCT,0.00,VWS V15.00,2015-01-27 06:08:00,
2015-01-27 01:13:00,17.4,-0.3,29.35,ENE,68,2.9,2.9,45,0.00,,SCT,0.00,VWS V15.00,2015-01-27 06:13:00,
2015-01-27 01:18:00,17.4,-0.3,29.35,NE,45,3.1,3.1,45,0.00,,SCT,0.00,VWS V15.00,2015-01-27 06:18:00,
2015-01-27 01:23:00,17.4,-0.3,29.35,NE,45,2.9,3.6,45,0.00,,SCT,0.00,VWS V15.00,2015-01-27 06:23:00,
2015-01-27 01:28:00,17.4,-0.3,29.35,NNE,22,2.2,2.2,45,0.00,,SCT,0.00,VWS V15.00,2015-01-27 06:28:00,
2015-01-27 01:33:00,17.4,0.2,29.35,NE,45,3.1,3.1,46,0.00,,SCT,0.00,VWS V15.00,2015-01-27 06:33:00,
2015-01-27 01:38:00,17.4,0.2,29.35,ENE,68,2.7,3.4,46,0.00,,SCT,0.00,VWS V15.00,2015-01-27 06:38:00,
2015-01-27 01:43:00,17.4,0.2,29.35,ENE,68,3.8,3.8,46,0.00,,SCT,0.00,VWS V15.00,2015-01-27 06:43:00,
2015-01-27 01:48:00,17.4,0.6,29.35,ENE,68,3.1,3.1,47,0.00,,SCT,0.00,VWS V15.00,2015-01-27 06:48:00,
2015-01-27 01:53:00,17.4,0.6,29.35,NE,45,3.4,3.4,47,0.00,,SCT,0.00,VWS V15.00,2015-01-27 06:53:00,
2015-01-27 01:58:00,17.2,0.5,29.35,ENE,68,3.4,3.4,47,0.00,,SCT,0.00,VWS V15.00,2015-01-27 06:58:00,
2015-01-27 02:03:00,17.2,0.5,29.35,ENE,68,2.5,2.5,47,0.00,,SCT,0.00,VWS V15.00,2015-01-27 07:03:00,
2015-01-27 02:08:00,17.2,0.5,29.35,ENE,68,3.8,3.8,47,0.00,,SCT,0.00,VWS V15.00,2015-01-27 07:08:00,
2015-01-27 02:13:00,17.2,0.5,29.35,ENE,68,3.4,3.6,47,0.00,,SCT,0.00,VWS V15.00,2015-01-27 07:13:00,
2015-01-27 02:18:00,17.2,0.5,29.35,ENE,68,2.9,2.9,47,0.00,,SCT,0.00,VWS V15.00,2015-01-27 07:18:00,
2015-01-27 02:23:00,17.2,0.5,29.35,ENE,68,2.5,2.9,47,0.00,,SCT,0.00,VWS V15.00,2015-01-27 07:23:00,
2015-01-27 02:28:00,17.2,0.5,29.35,ENE,68,2.9,2.9,47,0.00,,SCT,0.00,VWS V15.00,2015-01-27 07:28:00,
2015-01-27 02:33:00,17.2,0.9,29.35,NE,45,3.1,4.0,48,0.00,,SCT,0.00,VWS V15.00,2015-01-27 07:33:00,
2015-01-27 02:38:00,17.4,1.1,29.35,ENE,68,3.4,3.8,48,0.00,,SCT,0.00,VWS V15.00,2015-01-27 07:38:00,
2015-01-27 02:43:00,17.2,0.9,29.35,ENE,68,2.9,2.9,48,0.00,,SCT,0.00,VWS V15.00,2015-01-27 07:43:00,
2015-01-27 02:48:00,17.2,0.9,29.35,ENE,68,2.7,2.7,48,0.00,,SCT,0.00,VWS V15.00,2015-01-27 07:48:00,
2015-01-27 02:53:00,17.2,0.9,29.35,ENE,68,2.5,2.9,48,0.00,,SCT,0.00,VWS V15.00,2015-01-27 07:53:00,
2015-01-27 02:58:00,17.2,0.9,29.35,ENE,68,3.1,3.1,48,0.00,,SCT,0.00,VWS V15.00,2015-01-27 07:58:00,
2015-01-27 03:03:00,17.2,0.9,29.35,ENE,68,3.8,3.8,48,0.00,,SCT,0.00,VWS V15.00,2015-01-27 08:03:00,
2015-01-27 03:08:00,17.2,0.9,29.38,NE,45,3.8,3.8,48,0.00,,SCT,0.00,VWS V15.00,2015-01-27 08:08:00,
2015-01-27 03:13:00,17.2,0.9,29.38,NE,45,2.0,2.5,48,0.00,,SCT,0.00,VWS V15.00,2015-01-27 08:13:00,
2015-01-27 03:18:00,17.2,0.9,29.38,ENE,68,2.7,2.7,48,0.00,,SCT,0.00,VWS V15.00,2015-01-27 08:18:00,
2015-01-27 03:23:00,17.2,0.9,29.35,ENE,68,2.9,2.9,48,0.00,,SCT,0.00,VWS V15.00,2015-01-27 08:23:00,
2015-01-27 03:28:00,17.1,0.8,29.35,ENE,68,2.7,2.7,48,0.00,,SCT,0.00,VWS V15.00,2015-01-27 08:28:00,
2015-01-27 03:33:00,17.1,0.8,29.35,East,90,3.4,3.4,48,0.00,,SCT,0.00,VWS V15.00,2015-01-27 08:33:00,
2015-01-27 03:38:00,17.1,0.8,29.38,ENE,68,2.9,2.9,48,0.00,,SCT,0.00,VWS V15.00,2015-01-27 08:38:00,
2015-01-27 03:43:00,17.1,0.8,29.38,ENE,68,2.9,3.4,48,0.00,,SCT,0.00,VWS V15.00,2015-01-27 08:43:00,
2015-01-27 03:48:00,16.9,0.6,29.38,ENE,68,2.7,2.7,48,0.00,,SCT,0.00,VWS V15.00,2015-01-27 08:48:00,
2015-01-27 03:53:00,16.7,0.4,29.38,NE,45,2.2,2.9,48,0.00,,SCT,0.00,VWS V15.00,2015-01-27 08:53:00,
2015-01-27 03:58:00,16.5,0.3,29.38,ENE,68,2.2,2.5,48,0.00,,SCT,0.00,VWS V15.00,2015-01-27 08:58:00,
2015-01-27 04:03:00,16.5,0.3,29.38,ENE,68,2.7,2.7,48,0.00,,SCT,0.00,VWS V15.00,2015-01-27 09:03:00,
2015-01-27 04:08:00,16.2,-0.1,29.38,ENE,68,2.0,2.5,48,0.00,,SCT,0.00,VWS V15.00,2015-01-27 09:08:00,
2015-01-27 04:13:00,16.0,-0.2,29.38,ENE,68,2.2,2.5,48,0.00,,SCT,0.00,VWS V15.00,2015-01-27 09:13:00,
2015-01-27 04:18:00,15.8,-0.4,29.38,ENE,68,2.7,2.9,48,0.00,,SCT,0.00,VWS V15.00,2015-01-27 09:18:00,
2015-01-27 04:23:00,15.8,0.5,29.38,ENE,68,2.9,2.9,50,0.00,,SCT,0.00,VWS V15.00,2015-01-27 09:23:00,
2015-01-27 04:28:00,15.8,0.9,29.38,ENE,68,2.9,3.1,51,0.00,,SCT,0.00,VWS V15.00,2015-01-27 09:28:00,
2015-01-27 04:33:00,15.4,1.0,29.38,ENE,68,3.1,3.1,52,0.00,,SCT,0.00,VWS V15.00,2015-01-27 09:33:00,
2015-01-27 04:38:00,15.4,1.0,29.35,ENE,68,3.8,3.8,52,0.00,,SCT,0.00,VWS V15.00,2015-01-27 09:38:00,
2015-01-27 04:43:00,15.4,1.8,29.35,ENE,68,2.9,3.4,54,0.00,,SCT,0.00,VWS V15.00,2015-01-27 09:43:00,
2015-01-27 04:48:00,15.3,1.6,29.35,ENE,68,4.3,4.3,54,0.00,,SCT,0.00,VWS V15.00,2015-01-27 09:48:00,
2015-01-27 04:53:00,15.3,2.0,29.38,ENE,68,2.9,2.9,55,0.00,,SCT,0.00,VWS V15.00,2015-01-27 09:53:00,
2015-01-27 04:58:00,15.1,2.2,29.38,ENE,68,3.6,3.6,56,0.00,,SCT,0.00,VWS V15.00,2015-01-27 09:58:00,
2015-01-27 05:03:00,15.1,2.2,29.38,ENE,68,3.1,3.4,56,0.00,,SCT,0.00,VWS V15.00,2015-01-27 10:03:00,
2015-01-27 05:08:00,15.1,2.6,29.35,ENE,68,3.8,3.8,57,0.00,,SCT,0.00,VWS V15.00,2015-01-27 10:08:00,
2015-01-27 05:13:00,15.1,3.0,29.35,ENE,68,2.9,2.9,58,0.00,,SCT,0.00,VWS V15.00,2015-01-27 10:13:00,
2015-01-27 05:18:00,14.9,2.8,29.35,ENE,68,2.7,3.1,58,0.00,,SCT,0.00,VWS V15.00,2015-01-27 10:18:00,
2015-01-27 05:23:00,14.5,2.5,29.38,NE,45,2.7,2.7,58,0.00,,SCT,0.00,VWS V15.00,2015-01-27 10:23:00,
2015-01-27 05:28:00,14.5,2.5,29.38,ENE,68,2.7,2.7,58,0.00,,SCT,0.00,VWS V15.00,2015-01-27 10:28:00,
2015-01-27 05:33:00,14.5,2.8,29.38,NE,45,3.8,3.8,59,0.00,,SCT,0.00,VWS V15.00,2015-01-27 10:33:00,
2015-01-27 05:38:00,14.7,3.7,29.38,ENE,68,3.1,3.1,61,0.00,,SCT,0.00,VWS V15.00,2015-01-27 10:38:00,
2015-01-27 05:43:00,14.7,3.7,29.38,ENE,68,3.4,3.6,61,0.00,,SCT,0.00,VWS V15.00,2015-01-27 10:43:00,
2015-01-27 05:48:00,14.7,4.1,29.38,ENE,68,3.4,3.4,62,0.00,,SCT,0.00,VWS V15.00,2015-01-27 10:48:00,
2015-01-27 05:53:00,14.5,4.2,29.41,ENE,68,4.3,4.3,63,0.00,,SCT,0.00,VWS V15.00,2015-01-27 10:53:00,
2015-01-27 05:58:00,14.7,4.8,29.41,ENE,68,3.8,3.8,64,0.00,,SCT,0.00,VWS V15.00,2015-01-27 10:58:00,
2015-01-27 06:03:00,14.5,4.6,29.41,ENE,68,3.8,3.8,64,0.00,,SCT,0.00,VWS V15.00,2015-01-27 11:03:00,
2015-01-27 06:08:00,14.4,4.4,29.38,NE,45,3.8,3.8,64,0.00,,SCT,0.00,VWS V15.00,2015-01-27 11:08:00,
2015-01-27 06:13:00,14.4,4.4,29.38,ENE,68,3.4,4.0,64,0.00,,SCT,0.00,VWS V15.00,2015-01-27 11:13:00,
2015-01-27 06:18:00,14.4,4.4,29.38,ENE,68,3.6,5.6,64,0.00,,SCT,0.00,VWS V15.00,2015-01-27 11:18:00,
2015-01-27 06:23:00,14.2,4.2,29.41,NE,45,3.6,4.0,64,0.00,,SCT,0.00,VWS V15.00,2015-01-27 11:23:00,
2015-01-27 06:28:00,14.0,4.1,29.41,ENE,68,2.9,3.4,64,0.00,,SCT,0.00,VWS V15.00,2015-01-27 11:28:00,
2015-01-27 06:33:00,13.8,3.9,29.41,ENE,68,3.1,3.6,64,0.00,,SCT,0.00,VWS V15.00,2015-01-27 11:33:00,
2015-01-27 06:38:00,13.8,3.9,29.44,ENE,68,2.9,3.6,64,0.00,,SCT,0.00,VWS V15.00,2015-01-27 11:38:00,
2015-01-27 06:43:00,13.6,3.7,29.44,ENE,68,3.4,4.3,64,0.00,,SCT,0.00,VWS V15.00,2015-01-27 11:43:00,
2015-01-27 06:48:00,13.6,3.7,29.44,ENE,68,3.4,3.8,64,0.00,,SCT,0.00,VWS V15.00,2015-01-27 11:48:00,
2015-01-27 06:53:00,13.5,3.6,29.47,ENE,68,3.8,3.8,64,0.00,,SCT,0.00,VWS V15.00,2015-01-27 11:53:00,
2015-01-27 06:58:00,13.5,3.6,29.47,ENE,68,3.4,4.0,64,0.00,,SCT,0.00,VWS V15.00,2015-01-27 11:58:00,
2015-01-27 07:03:00,13.5,3.6,29.47,ENE,68,3.8,3.8,64,0.00,,SCT,0.00,VWS V15.00,2015-01-27 12:03:00,
2015-01-27 07:08:00,13.3,3.4,29.44,ENE,68,3.1,3.4,64,0.00,,SCT,0.00,VWS V15.00,2015-01-27 12:08:00,
2015-01-27 07:13:00,12.9,3.0,29.44,ENE,68,3.4,3.6,64,0.00,,SCT,0.00,VWS V15.00,2015-01-27 12:13:00,
2015-01-27 07:18:00,12.9,3.0,29.44,ENE,68,3.4,3.4,64,0.00,,SCT,0.00,VWS V15.00,2015-01-27 12:18:00,
2015-01-27 07:22:00,12.9,3.0,29.44,NE,45,4.0,4.3,64,0.00,,SCT,0.00,VWS V15.00,2015-01-27 12:22:00,
2015-01-27 07:27:00,12.7,2.9,29.44,ENE,68,3.1,3.1,64,0.00,,SCT,0.00,VWS V15.00,2015-01-27 12:27:00,
2015-01-27 07:32:00,12.7,2.9,29.44,ENE,68,3.4,3.6,64,0.00,,SCT,0.00,VWS V15.00,2015-01-27 12:32:00,
2015-01-27 07:37:00,12.6,2.7,29.44,ENE,68,2.9,4.0,64,0.00,,SCT,0.00,VWS V15.00,2015-01-27 12:37:00,
2015-01-27 07:42:00,12.2,2.4,29.44,ENE,68,2.5,3.1,64,0.00,,SCT,0.00,VWS V15.00,2015-01-27 12:42:00,
2015-01-27 07:47:00,11.8,2.0,29.44,ENE,68,2.5,2.5,64,0.00,,SCT,0.00,VWS V15.00,2015-01-27 12:47:00,
2015-01-27 07:52:00,11.8,2.0,29.44,ENE,68,2.9,2.9,64,0.00,,SCT,0.00,VWS V15.00,2015-01-27 12:52:00,
2015-01-27 07:57:00,11.8,2.0,29.44,ENE,68,2.9,3.6,64,0.00,,SCT,0.00,VWS V15.00,2015-01-27 12:57:00,
2015-01-27 08:02:00,11.8,2.0,29.44,ENE,68,2.9,3.4,64,0.00,,SCT,0.00,VWS V15.00,2015-01-27 13:02:00,
2015-01-27 08:07:00,11.8,2.0,29.47,ENE,68,3.1,3.4,64,0.00,,SCT,0.00,VWS V15.00,2015-01-27 13:07:00,
2015-01-27 08:12:00,11.8,2.0,29.47,NE,45,2.9,4.0,64,0.00,,SCT,0.00,VWS V15.00,2015-01-27 13:12:00,
2015-01-27 08:17:00,11.7,1.9,29.47,ENE,68,3.4,3.4,64,0.00,,SCT,0.00,VWS V15.00,2015-01-27 13:17:00,
2015-01-27 08:22:00,11.8,2.0,29.47,NE,45,3.1,3.6,64,0.00,,SCT,0.00,VWS V15.00,2015-01-27 13:22:00,
2015-01-27 08:27:00,11.8,2.0,29.47,ENE,68,2.9,2.9,64,0.00,,SCT,0.00,VWS V15.00,2015-01-27 13:27:00,
2015-01-27 08:32:00,12.2,2.4,29.47,ENE,68,3.6,3.6,64,0.00,,SCT,0.00,VWS V15.00,2015-01-27 13:32:00,
2015-01-27 08:37:00,12.2,2.4,29.47,ENE,68,3.4,4.5,64,0.00,,SCT,0.00,VWS V15.00,2015-01-27 13:37:00,
2015-01-27 08:42:00,12.6,2.7,29.47,ENE,68,3.8,4.0,64,0.00,,SCT,0.00,VWS V15.00,2015-01-27 13:42:00,
2015-01-27 08:47:00,12.9,3.0,29.47,ENE,68,4.9,4.9,64,0.00,,SCT,0.00,VWS V15.00,2015-01-27 13:47:00,
2015-01-27 08:52:00,13.3,3.4,29.47,ENE,68,4.0,4.9,64,0.00,,SCT,0.00,VWS V15.00,2015-01-27 13:52:00,
2015-01-27 08:57:00,13.5,3.6,29.47,NE,45,4.0,4.0,64,0.00,,SCT,0.00,VWS V15.00,2015-01-27 13:57:00,
2015-01-27 09:02:00,14.4,2.7,29.47,ENE,68,4.0,4.0,59,0.00,,SCT,0.00,VWS V15.00,2015-01-27 14:02:00,
2015-01-27 09:07:00,15.3,3.2,29.50,ENE,68,4.3,4.3,58,0.00,,SCT,0.00,VWS V15.00,2015-01-27 14:07:00,
2015-01-27 09:12:00,16.0,3.1,29.50,ENE,68,4.0,4.0,56,0.00,,SCT,0.00,VWS V15.00,2015-01-27 14:12:00,
2015-01-27 09:17:00,16.9,3.5,29.50,ENE,68,6.0,6.0,55,0.00,,SCT,0.00,VWS V15.00,2015-01-27 14:17:00,
2015-01-27 09:22:00,16.9,3.1,29.50,NNE,22,4.3,4.3,54,0.00,,SCT,0.00,VWS V15.00,2015-01-27 14:22:00,
2015-01-27 09:27:00,16.9,3.1,29.50,ENE,68,3.6,3.6,54,0.00,,SCT,0.00,VWS V15.00,2015-01-27 14:27:00,
2015-01-27 09:32:00,18.1,2.2,29.50,ENE,68,3.8,3.8,49,0.00,,SCT,0.00,VWS V15.00,2015-01-27 14:32:00,
2015-01-27 09:37:00,18.1,1.3,29.50,ENE,68,4.7,6.0,47,0.00,,SCT,0.00,VWS V15.00,2015-01-27 14:37:00,
2015-01-27 09:42:00,18.9,1.5,29.50,ENE,68,4.0,4.0,46,0.00,,SCT,0.00,VWS V15.00,2015-01-27 14:42:00,
2015-01-27 09:47:00,19.2,1.4,29.50,NE,45,3.8,3.8,45,0.00,,SCT,0.00,VWS V15.00,2015-01-27 14:47:00,
2015-01-27 09:52:00,19.6,1.2,29.50,East,90,4.0,4.0,44,0.00,,SCT,0.00,VWS V15.00,2015-01-27 14:52:00,
2015-01-27 09:57:00,19.8,0.9,29.50,ENE,68,4.0,4.0,43,0.00,,SCT,0.00,VWS V15.00,2015-01-27 14:57:00,
2015-01-27 10:02:00,20.1,1.2,29.50,NE,45,4.0,5.4,43,0.00,,SCT,0.00,VWS V15.00,2015-01-27 15:02:00,
2015-01-27 10:07:00,20.3,0.4,29.50,ENE,68,3.8,3.8,41,0.00,,SCT,0.00,VWS V15.00,2015-01-27 15:07:00,
2015-01-27 10:12:00,20.3,-0.7,29.50,NE,45,4.9,4.9,39,0.00,,SCT,0.00,VWS V15.00,2015-01-27 15:12:00,
2015-01-27 10:17:00,20.3,-1.2,29.50,ENE,68,7.8,7.8,38,0.00,,SCT,0.00,VWS V15.00,2015-01-27 15:17:00,
2015-01-27 10:22:00,20.3,-1.2,29.50,East,90,4.7,5.4,38,0.00,,SCT,0.00,VWS V15.00,2015-01-27 15:22:00,
2015-01-27 10:27:00,20.7,-1.5,29.50,ENE,68,2.9,3.6,37,0.00,,SCT,0.00,VWS V15.00,2015-01-27 15:27:00,
2015-01-27 10:32:00,21.6,-1.2,29.50,ENE,68,3.6,4.0,36,0.00,,SCT,0.00,VWS V15.00,2015-01-27 15:32:00,
2015-01-27 10:37:00,21.7,-1.1,29.50,ENE,68,4.0,4.9,36,0.00,,SCT,0.00,VWS V15.00,2015-01-27 15:37:00,
2015-01-27 10:42:00,21.7,-1.7,29.50,ENE,68,6.3,6.3,35,0.00,,SCT,0.00,VWS V15.00,2015-01-27 15:42:00,
2015-01-27 10:47:00,22.1,-1.4,29.50,ENE,68,3.4,5.6,35,0.00,,SCT,0.00,VWS V15.00,2015-01-27 15:47:00,
2015-01-27 10:52:00,23.0,-1.2,29.50,ENE,68,4.5,4.5,34,0.00,,SCT,0.00,VWS V15.00,2015-01-27 15:52:00,
2015-01-27 10:57:00,23.2,-1.6,29.50,NE,45,4.3,4.3,33,0.00,,SCT,0.00,VWS V15.00,2015-01-27 15:57:00,
2015-01-27 11:02:00,23.5,-1.3,29.50,ENE,68,4.0,4.9,33,0.00,,SCT,0.00,VWS V15.00,2015-01-27 16:02:00,
2015-01-27 11:07:00,23.9,-1.0,29.53,ENE,68,3.6,3.6,33,0.00,,SCT,0.00,VWS V15.00,2015-01-27 16:07:00,
2015-01-27 11:12:00,24.4,-0.5,29.53,ENE,68,4.3,4.3,33,0.00,,SCT,0.00,VWS V15.00,2015-01-27 16:12:00,
2015-01-27 11:17:00,24.6,-1.0,29.53,ENE,68,4.7,4.7,32,0.00,,SCT,0.00,VWS V15.00,2015-01-27 16:17:00,
2015-01-27 11:22:00,25.0,-0.7,29.50,ENE,68,3.6,4.3,32,0.00,,SCT,0.00,VWS V15.00,2015-01-27 16:22:00,
2015-01-27 11:27:00,24.8,-0.9,29.50,ENE,68,5.8,5.8,32,0.00,,SCT,0.00,VWS V15.00,2015-01-27 16:27:00,
2015-01-27 11:32:00,24.4,-3.2,29.50,ENE,68,3.1,3.1,29,0.00,,SCT,0.00,VWS V15.00,2015-01-27 16:32:00,
2015-01-27 11:37:00,24.6,-3.1,29.50,ENE,68,4.9,4.9,29,0.00,,SCT,0.00,VWS V15.00,2015-01-27 16:37:00,
2015-01-27 11:42:00,24.6,-4.6,29.50,ENE,68,4.9,4.9,27,0.00,,SCT,0.00,VWS V15.00,2015-01-27 16:42:00,
2015-01-27 11:47:00,24.6,-4.6,29.50,ENE,68,4.9,4.9,27,0.00,,SCT,0.00,VWS V15.00,2015-01-27 16:47:00,
2015-01-27 11:52:00,25.2,-4.9,29.50,ENE,68,4.0,4.0,26,0.00,,SCT,0.00,VWS V15.00,2015-01-27 16:52:00,
2015-01-27 11:57:00,25.7,-6.1,29.50,ENE,68,5.4,5.4,24,0.00,,SCT,0.00,VWS V15.00,2015-01-27 16:57:00,
2015-01-27 12:02:00,26.2,-5.6,29.50,NE,45,3.4,5.4,24,0.00,,SCT,0.00,VWS V15.00,2015-01-27 17:02:00,
2015-01-27 12:07:00,27.7,-2.7,29.50,ENE,68,2.9,3.1,26,0.00,,SCT,0.00,VWS V15.00,2015-01-27 17:07:00,
2015-01-27 12:12:00,27.3,-5.6,29.50,North,0,4.0,6.0,23,0.00,,SCT,0.00,VWS V15.00,2015-01-27 17:12:00,
2015-01-27 12:17:00,27.5,-7.3,29.50,ENE,68,4.0,4.3,21,0.00,,SCT,0.00,VWS V15.00,2015-01-27 17:17:00,
2015-01-27 12:22:00,28.9,-4.2,29.50,ENE,68,2.7,3.4,23,0.00,,SCT,0.00,VWS V15.00,2015-01-27 17:22:00,
2015-01-27 12:27:00,29.3,-6.8,29.50,ENE,68,3.1,4.0,20,0.00,,SCT,0.00,VWS V15.00,2015-01-27 17:27:00,
2015-01-27 12:32:00,28.9,-7.1,29.50,NE,45,2.2,3.1,20,0.00,,SCT,0.00,VWS V15.00,2015-01-27 17:32:00,
2015-01-27 12:37:00,29.8,-6.3,29.47,NE,45,2.9,2.9,20,0.00,,SCT,0.00,VWS V15.00,2015-01-27 17:37:00,
2015-01-27 12:42:00,29.3,-8.9,29.47,NE,45,4.3,4.3,18,0.00,,SCT,0.00,VWS V15.00,2015-01-27 17:42:00,
2015-01-27 12:47:00,29.5,-8.8,29.47,NNE,22,5.8,5.8,18,0.00,,SCT,0.00,VWS V15.00,2015-01-27 17:47:00,
2015-01-27 12:52:00,29.3,-8.9,29.50,NNE,22,2.7,2.7,18,0.00,,SCT,0.00,VWS V15.00,2015-01-27 17:52:00,
2015-01-27 12:57:00,28.2,-9.8,29.50,NNE,22,4.0,4.9,18,0.00,,SCT,0.00,VWS V15.00,2015-01-27 17:57:00,
2015-01-27 13:02:00,28.2,-9.8,29.50,ENE,68,4.0,4.0,18,0.00,,SCT,0.00,VWS V15.00,2015-01-27 18:02:00,
2015-01-27 13:07:00,28.6,-9.5,29.50,ENE,68,3.4,3.6,18,0.00,,SCT,0.00,VWS V15.00,2015-01-27 18:07:00,
2015-01-27 13:12:00,29.3,-8.9,29.50,ENE,68,3.8,3.8,18,0.00,,SCT,0.00,VWS V15.00,2015-01-27 18:12:00,
2015-01-27 13:17:00,30.4,-8.0,29.50,NE,45,1.6,2.2,18,0.00,,SCT,0.00,VWS V15.00,2015-01-27 18:17:00,
2015-01-27 13:21:00,31.8,-6.8,29.50,NE,45,1.1,2.0,18,0.00,,SCT,0.00,VWS V15.00,2015-01-27 18:21:00,
2015-01-27 13:26:00,32.2,-6.6,29.50,ESE,112,2.5,2.7,18,0.00,,SCT,0.00,VWS V15.00,2015-01-27 18:26:00,
2015-01-27 13:31:00,32.2,-6.6,29.50,North,0,2.7,2.7,18,0.00,,SCT,0.00,VWS V15.00,2015-01-27 18:31:00,
2015-01-27 13:36:00,32.7,-6.1,29.50,ENE,68,2.2,2.7,18,0.00,,SCT,0.00,VWS V15.00,2015-01-27 18:36:00,
2015-01-27 13:41:00,32.4,-6.4,29.50,ENE,68,1.6,3.8,18,0.00,,SCT,0.00,VWS V15.00,2015-01-27 18:41:00,
2015-01-27 13:46:00,31.6,-10.7,29.50,NNE,22,2.5,3.8,15,0.00,,SCT,0.00,VWS V15.00,2015-01-27 18:46:00,
2015-01-27 13:51:00,31.8,-10.6,29.50,ENE,68,1.6,2.5,15,0.00,,SCT,0.00,VWS V15.00,2015-01-27 18:51:00,
2015-01-27 13:56:00,32.7,-6.1,29.50,NE,45,2.2,2.5,18,0.00,,SCT,0.00,VWS V15.00,2015-01-27 18:56:00,
2015-01-27 14:01:00,32.7,-9.8,29.50,ENE,68,2.2,2.5,15,0.00,,SCT,0.00,VWS V15.00,2015-01-27 19:01:00,
2015-01-27 14:06:00,33.1,-9.5,29.50,North,0,2.9,2.9,15,0.00,,SCT,0.00,VWS V15.00,2015-01-27 19:06:00,
2015-01-27 14:11:00,33.4,-9.2,29.50,North,0,2.5,2.5,15,0.00,,SCT,0.00,VWS V15.00,2015-01-27 19:11:00,
2015-01-27 14:16:00,33.6,-9.1,29.50,NNW,338,1.6,2.9,15,0.00,,SCT,0.00,VWS V15.00,2015-01-27 19:16:00,
2015-01-27 14:21:00,33.8,-8.9,29.50,North,0,2.2,2.5,15,0.00,,SCT,0.00,VWS V15.00,2015-01-27 19:21:00,
2015-01-27 14:26:00,33.8,-8.9,29.50,NW,315,2.5,2.9,15,0.00,,SCT,0.00,VWS V15.00,2015-01-27 19:26:00,
2015-01-27 14:31:00,33.8,-8.9,29.50,NNW,338,2.9,2.9,15,0.00,,SCT,0.00,VWS V15.00,2015-01-27 19:31:00,
2015-01-27 14:36:00,33.6,-9.1,29.47,NNW,338,2.7,2.7,15,0.00,,SCT,0.00,VWS V15.00,2015-01-27 19:36:00,
2015-01-27 14:41:00,33.1,-9.5,29.47,NNW,338,2.5,2.5,15,0.00,,SCT,0.00,VWS V15.00,2015-01-27 19:41:00,
2015-01-27 14:46:00,33.3,-9.4,29.47,West,270,1.6,1.6,15,0.00,,SCT,0.00,VWS V15.00,2015-01-27 19:46:00,
2015-01-27 14:51:00,31.1,-11.1,29.47,WNW,292,3.8,3.8,15,0.00,,SCT,0.00,VWS V15.00,2015-01-27 19:51:00,
2015-01-27 14:56:00,30.2,-11.9,29.47,NNW,338,2.5,2.9,15,0.00,,SCT,0.00,VWS V15.00,2015-01-27 19:56:00,
2015-01-27 15:01:00,29.7,-12.3,29.47,WNW,292,4.0,4.0,15,0.00,,SCT,0.00,VWS V15.00,2015-01-27 20:01:00,
2015-01-27 15:06:00,29.3,-8.9,29.50,NNW,338,2.7,2.7,18,0.00,,SCT,0.00,VWS V15.00,2015-01-27 20:06:00,
2015-01-27 15:11:00,28.8,-9.4,29.50,NNW,338,2.7,3.6,18,0.00,,SCT,0.00,VWS V15.00,2015-01-27 20:11:00,
2015-01-27 15:16:00,28.2,-9.8,29.50,West,270,2.2,2.7,18,0.00,,SCT,0.00,VWS V15.00,2015-01-27 20:16:00,
2015-01-27 15:21:00,27.5,-10.4,29.50,North,0,2.5,2.9,18,0.00,,SCT,0.00,VWS V15.00,2015-01-27 20:21:00,
2015-01-27 15:26:00,27.3,-7.4,29.50,NNE,22,3.6,4.3,21,0.00,,SCT,0.00,VWS V15.00,2015-01-27 20:26:00,
2015-01-27 15:31:00,27.3,-7.4,29.50,WNW,292,1.3,2.5,21,0.00,,SCT,0.00,VWS V15.00,2015-01-27 20:31:00,
2015-01-27 15:36:00,27.0,-7.8,29.50,WSW,248,2.7,2.7,21,0.00,,SCT,0.00,VWS V15.00,2015-01-27 20:36:00,
2015-01-27 15:41:00,27.3,-7.4,29.50,NNW,338,1.6,2.0,21,0.00,,SCT,0.00,VWS V15.00,2015-01-27 20:41:00,
2015-01-27 15:46:00,27.1,-7.6,29.50,NNW,338,1.6,2.2,21,0.00,,SCT,0.00,VWS V15.00,2015-01-27 20:46:00,
2015-01-27 15:51:00,26.2,-8.4,29.47,NW,315,2.5,2.5,21,0.00,,SCT,0.00,VWS V15.00,2015-01-27 20:51:00,
2015-01-27 15:56:00,25.3,-9.1,29.47,WNW,292,2.7,2.7,21,0.00,,SCT,0.00,VWS V15.00,2015-01-27 20:56:00,
2015-01-27 16:01:00,25.9,-8.7,29.47,NW,315,4.3,4.3,21,0.00,,SCT,0.00,VWS V15.00,2015-01-27 21:01:00,
2015-01-27 16:06:00,26.1,-8.5,29.50,WNW,292,1.3,1.3,21,0.00,,SCT,0.00,VWS V15.00,2015-01-27 21:06:00,
2015-01-27 16:11:00,27.0,-5.9,29.50,West,270,4.3,4.3,23,0.00,,SCT,0.00,VWS V15.00,2015-01-27 21:11:00,
2015-01-27 16:16:00,27.3,-5.6,29.50,NNW,338,1.6,2.5,23,0.00,,SCT,0.00,VWS V15.00,2015-01-27 21:16:00,
2015-01-27 16:21:00,27.5,-5.4,29.50,NW,315,2.9,3.6,23,0.00,,SCT,0.00,VWS V15.00,2015-01-27 21:21:00,
2015-01-27 16:26:00,27.1,-7.6,29.50,NNW,338,3.1,3.8,21,0.00,,SCT,0.00,VWS V15.00,2015-01-27 21:26:00,
2015-01-27 16:31:00,27.7,-7.2,29.50,NNW,338,2.9,2.9,21,0.00,,SCT,0.00,VWS V15.00,2015-01-27 21:31:00,
2015-01-27 16:36:00,27.0,-7.8,29.50,NW,315,1.3,2.2,21,0.00,,SCT,0.00,VWS V15.00,2015-01-27 21:36:00,
2015-01-27 16:41:00,27.0,-7.8,29.50,West,270,4.0,4.0,21,0.00,,SCT,0.00,VWS V15.00,2015-01-27 21:41:00,
2015-01-27 16:46:00,27.0,-7.8,29.50,NNW,338,2.2,2.2,21,0.00,,SCT,0.00,VWS V15.00,2015-01-27 21:46:00,
2015-01-27 16:51:00,27.0,-7.8,29.50,NNW,338,2.0,2.0,21,0.00,,SCT,0.00,VWS V15.00,2015-01-27 21:51:00,
2015-01-27 16:56:00,26.4,-8.2,29.50,NW,315,1.3,1.3,21,0.00,,SCT,0.00,VWS V15.00,2015-01-27 21:56:00,
2015-01-27 17:01:00,26.6,-8.1,29.50,NNW,338,2.7,2.7,21,0.00,,SCT,0.00,VWS V15.00,2015-01-27 22:01:00,
2015-01-27 17:06:00,26.2,-8.4,29.53,NNW,338,3.1,3.1,21,0.00,,SCT,0.00,VWS V15.00,2015-01-27 22:06:00,
2015-01-27 17:11:00,26.4,-8.2,29.53,NNW,338,1.6,1.6,21,0.00,,SCT,0.00,VWS V15.00,2015-01-27 22:11:00,
2015-01-27 17:16:00,25.7,-8.8,29.53,NNW,338,2.0,2.0,21,0.00,,SCT,0.00,VWS V15.00,2015-01-27 22:16:00,
2015-01-27 17:21:00,24.8,-8.6,29.53,North,0,2.2,2.7,22,0.00,,SCT,0.00,VWS V15.00,2015-01-27 22:21:00,
2015-01-27 17:26:00,24.3,-9.1,29.53,NNW,338,2.0,2.0,22,0.00,,SCT,0.00,VWS V15.00,2015-01-27 22:26:00,
2015-01-27 17:31:00,23.0,-10.2,29.53,NNW,338,1.6,1.6,22,0.00,,SCT,0.00,VWS V15.00,2015-01-27 22:31:00,
2015-01-27 17:36:00,22.1,-10.9,29.53,NNW,338,1.3,1.3,22,0.00,,SCT,0.00,VWS V15.00,2015-01-27 22:36:00,
2015-01-27 17:41:00,20.7,-12.2,29.53,NNW,338,1.6,1.6,22,0.00,,SCT,0.00,VWS V15.00,2015-01-27 22:41:00,
2015-01-27 17:46:00,19.0,-12.6,29.53,North,0,0.0,0.0,23,0.00,,SCT,0.00,VWS V15.00,2015-01-27 22:46:00,
2015-01-27 17:51:00,18.1,-13.4,29.53,NNW,338,0.0,1.3,23,0.00,,SCT,0.00,VWS V15.00,2015-01-27 22:51:00,
2015-01-27 17:56:00,17.4,-14.0,29.53,NNW,338,0.0,0.0,23,0.00,,SCT,0.00,VWS V15.00,2015-01-27 22:56:00,
2015-01-27 18:01:00,16.9,-14.5,29.53,NNW,338,0.0,0.0,23,0.00,,SCT,0.00,VWS V15.00,2015-01-27 23:01:00,
2015-01-27 18:06:00,16.5,-14.8,29.53,NNW,338,0.0,0.0,23,0.00,,SCT,0.00,VWS V15.00,2015-01-27 23:06:00,
2015-01-27 18:11:00,16.0,-12.8,29.53,NNW,338,1.3,1.3,26,0.00,,SCT,0.00,VWS V15.00,2015-01-27 23:11:00,
2015-01-27 18:16:00,15.6,-13.1,29.53,NNW,338,0.0,0.0,26,0.00,,SCT,0.00,VWS V15.00,2015-01-27 23:16:00,
2015-01-27 18:21:00,15.4,-13.3,29.53,NNW,338,0.0,0.0,26,0.00,,SCT,0.00,VWS V15.00,2015-01-27 23:21:00,
2015-01-27 18:26:00,14.9,-11.6,29.53,NNE,22,0.0,0.0,29,0.00,,SCT,0.00,VWS V15.00,2015-01-27 23:26:00,
2015-01-27 18:31:00,14.9,-11.6,29.53,NNE,22,0.0,0.0,29,0.00,,SCT,0.00,VWS V15.00,2015-01-27 23:31:00,
2015-01-27 18:36:00,14.7,-11.8,29.53,NNE,22,0.0,0.0,29,0.00,,SCT,0.00,VWS V15.00,2015-01-27 23:36:00,
2015-01-27 18:41:00,14.4,-12.1,29.53,NNE,22,0.0,0.0,29,0.00,,SCT,0.00,VWS V15.00,2015-01-27 23:41:00,
2015-01-27 18:46:00,14.2,-10.9,29.53,NNE,22,0.0,0.0,31,0.00,,SCT,0.00,VWS V15.00,2015-01-27 23:46:00,
2015-01-27 18:51:00,14.0,-10.4,29.53,NNE,22,0.0,0.0,32,0.00,,SCT,0.00,VWS V15.00,2015-01-27 23:51:00,
2015-01-27 18:56:00,13.6,-10.7,29.53,NNE,22,0.0,0.0,32,0.00,,SCT,0.00,VWS V15.00,2015-01-27 23:56:00,
2015-01-27 19:01:00,13.6,-10.7,29.53,NNE,22,0.0,0.0,32,0.00,,SCT,0.00,VWS V15.00,2015-01-28 00:01:00,
2015-01-27 19:06:00,13.8,-10.6,29.53,NNE,22,0.0,0.0,32,0.00,,SCT,0.00,VWS V15.00,2015-01-28 00:06:00,
2015-01-27 19:11:00,14.5,-8.7,29.53,NE,45,2.5,2.5,34,0.00,,SCT,0.00,VWS V15.00,2015-01-28 00:11:00,
2015-01-27 19:16:00,14.9,-8.4,29.53,NE,45,2.0,2.7,34,0.00,,SCT,0.00,VWS V15.00,2015-01-28 00:16:00,
2015-01-27 19:21:00,14.9,-7.8,29.53,NE,45,1.3,1.3,35,0.00,,SCT,0.00,VWS V15.00,2015-01-28 00:21:00,
2015-01-27 19:26:00,14.7,-8.6,29.53,NE,45,0.0,0.0,34,0.00,,SCT,0.00,VWS V15.00,2015-01-28 00:26:00,
2015-01-27 19:31:00,14.4,-8.9,29.53,NE,45,0.0,0.0,34,0.00,,SCT,0.00,VWS V15.00,2015-01-28 00:31:00,
2015-01-27 19:36:00,14.0,-8.6,29.53,NE,45,2.5,2.5,35,0.00,,SCT,0.00,VWS V15.00,2015-01-28 00:36:00,
2015-01-27 19:41:00,14.5,-8.1,29.56,ENE,68,2.5,2.5,35,0.00,,SCT,0.00,VWS V15.00,2015-01-28 00:41:00,
2015-01-27 19:46:00,14.7,-8.0,29.56,ENE,68,2.7,2.7,35,0.00,,SCT,0.00,VWS V15.00,2015-01-28 00:46:00,
2015-01-27 19:51:00,14.9,-7.8,29.56,ENE,68,2.5,2.9,35,0.00,,SCT,0.00,VWS V15.00,2015-01-28 00:51:00,
2015-01-27 19:56:00,15.1,-7.6,29.53,ENE,68,3.1,3.1,35,0.00,,SCT,0.00,VWS V15.00,2015-01-28 00:56:00,
2015-01-27 20:01:00,15.1,-7.6,29.53,ENE,68,3.1,3.1,35,0.00,,SCT,0.00,VWS V15.00,2015-01-28 01:01:00,
2015-01-27 20:05:00,14.9,-7.8,29.53,East,90,3.4,3.8,35,0.00,,SCT,0.00,VWS V15.00,2015-01-28 01:05:00,
2015-01-27 20:10:00,14.5,-8.1,29.56,East,90,2.7,2.7,35,0.00,,SCT,0.00,VWS V15.00,2015-01-28 01:10:00,
2015-01-27 20:15:00,14.5,-8.1,29.56,East,90,2.5,2.5,35,0.00,,SCT,0.00,VWS V15.00,2015-01-28 01:15:00,
2015-01-27 20:20:00,14.2,-8.4,29.56,ENE,68,2.5,2.5,35,0.00,,SCT,0.00,VWS V15.00,2015-01-28 01:20:00,
2015-01-27 20:25:00,13.8,-8.8,29.56,East,90,2.0,2.2,35,0.00,,SCT,0.00,VWS V15.00,2015-01-28 01:25:00,
2015-01-27 20:30:00,14.0,-8.0,29.56,East,90,3.1,3.1,36,0.00,,SCT,0.00,VWS V15.00,2015-01-28 01:30:00,
2015-01-27 20:35:00,13.8,-8.2,29.56,East,90,2.9,2.9,36,0.00,,SCT,0.00,VWS V15.00,2015-01-28 01:35:00,
2015-01-27 20:40:00,13.8,-8.2,29.53,East,90,3.4,3.6,36,0.00,,SCT,0.00,VWS V15.00,2015-01-28 01:40:00,
2015-01-27 20:45:00,13.8,-8.2,29.53,East,90,2.9,3.4,36,0.00,,SCT,0.00,VWS V15.00,2015-01-28 01:45:00,
2015-01-27 20:50:00,13.8,-8.2,29.53,East,90,3.1,3.1,36,0.00,,SCT,0.00,VWS V15.00,2015-01-28 01:50:00,
2015-01-27 20:55:00,13.6,-8.4,29.53,East,90,3.1,3.1,36,0.00,,SCT,0.00,VWS V15.00,2015-01-28 01:55:00,
2015-01-27 21:00:00,13.8,-8.2,29.53,ESE,112,2.9,2.9,36,0.00,,SCT,0.00,VWS V15.00,2015-01-28 02:00:00,
2015-01-27 21:05:00,13.6,-8.4,29.53,ENE,68,2.2,2.2,36,0.00,,SCT,0.00,VWS V15.00,2015-01-28 02:05:00,
2015-01-27 21:10:00,13.5,-8.5,29.53,ESE,112,3.1,3.4,36,0.00,,SCT,0.00,VWS V15.00,2015-01-28 02:10:00,
2015-01-27 21:15:00,13.6,-8.4,29.53,ESE,112,3.8,3.8,36,0.00,,SCT,0.00,VWS V15.00,2015-01-28 02:15:00,
2015-01-27 21:20:00,13.8,-8.2,29.53,East,90,4.0,4.0,36,0.00,,SCT,0.00,VWS V15.00,2015-01-28 02:20:00,